createdAt,value
2022-10-13T00:01:56.741Z,1.95
2022-10-13T00:04:23.171Z,2.90
2022-10-13T00:06:49.606Z,2.35
2022-10-13T00:09:16.038Z,2.55
2022-10-13T00:11:42.468Z,1.80
2022-10-13T00:14:08.907Z,2.40
2022-10-13T00:16:35.336Z,2.03
2022-10-13T00:19:02.044Z,2.38
2022-10-13T00:21:28.499Z,1.95
2022-10-13T00:23:54.932Z,2.03
2022-10-13T00:26:21.378Z,2.50
2022-10-13T00:28:52.213Z,2.35
2022-10-13T00:31:19.127Z,1.60
2022-10-13T00:33:45.557Z,1.95
2022-10-13T00:36:12.002Z,2.13
2022-10-13T00:38:38.446Z,1.55
2022-10-13T00:41:04.866Z,1.85
2022-10-13T00:43:31.276Z,1.85
2022-10-13T00:45:57.698Z,1.83
2022-10-13T00:48:24.138Z,2.00
2022-10-13T00:50:50.556Z,1.80
2022-10-13T00:53:16.987Z,1.65
2022-10-13T00:55:43.405Z,2.08
2022-10-13T00:58:09.848Z,2.45
2022-10-13T01:00:36.336Z,2.60
2022-10-13T01:03:02.840Z,1.92
2022-10-13T01:05:29.260Z,1.60
2022-10-13T01:07:55.701Z,2.30
2022-10-13T01:10:22.127Z,1.58
2022-10-13T01:12:48.562Z,1.65
2022-10-13T01:15:14.971Z,3.05
2022-10-13T01:17:41.412Z,2.65
2022-10-13T01:20:07.834Z,2.20
2022-10-13T01:22:34.267Z,1.70
2022-10-13T01:25:00.682Z,1.67
2022-10-13T01:27:27.109Z,1.70
2022-10-13T01:29:53.579Z,1.60
2022-10-13T01:32:20.381Z,1.60
2022-10-13T01:34:47.124Z,2.35
2022-10-13T01:37:13.540Z,1.90
2022-10-13T01:39:39.971Z,1.83
2022-10-13T01:42:06.400Z,2.03
2022-10-13T01:44:32.837Z,1.70
2022-10-13T01:46:59.249Z,2.22
2022-10-13T01:49:25.684Z,2.70
2022-10-13T01:51:52.117Z,1.65
2022-10-13T01:54:18.551Z,1.90
2022-10-13T01:56:44.970Z,1.98
2022-10-13T01:59:11.420Z,1.63
2022-10-13T02:01:37.865Z,2.03
2022-10-13T02:04:04.300Z,1.77
2022-10-13T02:06:30.725Z,2.20
2022-10-13T02:08:57.156Z,2.45
2022-10-13T02:11:23.573Z,1.85
2022-10-13T02:13:49.993Z,1.98
2022-10-13T02:16:16.425Z,2.00
2022-10-13T02:18:42.831Z,1.80
2022-10-13T02:21:09.260Z,1.85
2022-10-13T02:23:35.740Z,3.08
2022-10-13T02:26:02.186Z,4.03
2022-10-13T02:28:28.639Z,2.75
2022-10-13T02:30:55.090Z,2.40
2022-10-13T02:33:21.507Z,2.80
2022-10-13T02:35:47.941Z,3.20
2022-10-13T02:38:14.365Z,2.40
2022-10-13T02:40:40.800Z,2.42
2022-10-13T02:43:07.219Z,2.22
2022-10-13T02:45:33.645Z,3.40
2022-10-13T02:48:00.056Z,2.17
2022-10-13T02:50:26.488Z,2.15
2022-10-13T02:52:52.928Z,2.75
2022-10-13T02:55:19.368Z,3.20
2022-10-13T02:57:45.805Z,2.28
2022-10-13T03:00:12.237Z,2.97
2022-10-13T03:02:38.685Z,1.48
2022-10-13T03:05:05.118Z,2.45
2022-10-13T03:07:31.555Z,2.20
2022-10-13T03:09:57.988Z,2.00
2022-10-13T03:12:24.417Z,2.08
2022-10-13T03:14:50.844Z,1.80
2022-10-13T03:17:17.342Z,3.25
2022-10-13T03:19:43.773Z,4.00
2022-10-13T03:22:10.200Z,3.22
2022-10-13T03:24:36.621Z,3.28
2022-10-13T03:27:03.060Z,1.80
2022-10-13T03:29:29.498Z,2.50
2022-10-13T03:31:55.930Z,2.97
2022-10-13T03:34:22.367Z,2.88
2022-10-13T03:36:48.814Z,2.65
2022-10-13T03:39:15.234Z,3.03
2022-10-13T03:41:41.667Z,2.53
2022-10-13T03:44:08.093Z,2.30
2022-10-13T03:46:34.538Z,3.55
2022-10-13T03:49:00.947Z,2.00
2022-10-13T03:51:27.397Z,2.17
2022-10-13T03:53:53.805Z,3.38
2022-10-13T03:56:20.225Z,2.33
2022-10-13T03:58:46.662Z,1.85
2022-10-13T04:01:13.093Z,2.38
2022-10-13T04:03:39.545Z,3.10
2022-10-13T04:06:05.979Z,1.60
2022-10-13T04:08:32.396Z,2.25
2022-10-13T04:10:58.825Z,2.15
2022-10-13T04:13:25.254Z,2.53
2022-10-13T04:15:51.700Z,2.75
2022-10-13T04:18:18.121Z,2.88
2022-10-13T04:20:44.552Z,1.95
2022-10-13T04:23:10.986Z,2.65
2022-10-13T04:25:37.414Z,2.40
2022-10-13T04:28:03.862Z,2.97
2022-10-13T04:30:30.297Z,3.22
2022-10-13T04:32:56.738Z,1.88
2022-10-13T04:35:24.193Z,1.73
2022-10-13T04:37:50.629Z,1.50
2022-10-13T04:40:17.044Z,2.47
2022-10-13T04:42:43.477Z,3.65
2022-10-13T04:45:09.912Z,2.25
2022-10-13T04:47:37.170Z,3.38
2022-10-13T04:50:03.693Z,2.88
2022-10-13T04:52:30.146Z,2.78
2022-10-13T04:54:56.559Z,2.55
2022-10-13T04:57:22.994Z,3.67
2022-10-13T04:59:49.404Z,2.38
2022-10-13T05:02:15.853Z,2.63
2022-10-13T05:04:42.267Z,2.28
2022-10-13T05:07:24.063Z,2.55
2022-10-13T05:09:50.484Z,3.25
2022-10-13T05:12:17.020Z,2.42
2022-10-13T05:14:43.554Z,2.40
2022-10-13T05:17:09.983Z,2.03
2022-10-13T05:19:36.401Z,2.55
2022-10-13T05:22:02.834Z,2.92
2022-10-13T05:24:29.262Z,2.97
2022-10-13T05:26:55.710Z,2.65
2022-10-13T05:29:22.162Z,2.92
2022-10-13T05:31:48.596Z,2.42
2022-10-13T05:34:15.011Z,1.90
2022-10-13T05:36:41.440Z,2.58
2022-10-13T05:39:07.862Z,2.78
2022-10-13T05:41:34.280Z,2.70
2022-10-13T05:44:00.704Z,3.80
2022-10-13T05:46:27.131Z,1.58
2022-10-13T05:48:53.567Z,2.38
2022-10-13T05:51:20.006Z,2.78
2022-10-13T05:53:50.248Z,3.00
2022-10-13T05:56:18.393Z,1.95
2022-10-13T05:58:44.830Z,3.60
2022-10-13T06:01:11.241Z,4.15
2022-10-13T06:03:37.675Z,2.30
2022-10-13T06:06:04.103Z,2.88
2022-10-13T06:08:30.552Z,1.92
2022-10-13T06:10:56.969Z,2.35
2022-10-13T06:13:23.401Z,2.25
2022-10-13T06:15:49.829Z,2.00
2022-10-13T06:18:16.268Z,2.33
2022-10-13T06:20:42.689Z,2.20
2022-10-13T06:23:09.123Z,2.92
2022-10-13T06:25:35.696Z,2.00
2022-10-13T06:28:02.160Z,2.15
2022-10-13T06:30:28.577Z,2.17
2022-10-13T06:32:55.013Z,2.88
2022-10-13T06:35:21.437Z,2.53
2022-10-13T06:37:47.893Z,2.63
2022-10-13T06:40:14.314Z,2.72
2022-10-13T06:42:40.744Z,2.60
2022-10-13T06:45:07.170Z,2.75
2022-10-13T06:47:33.604Z,2.97
2022-10-13T06:50:00.033Z,1.70
2022-10-13T06:52:26.445Z,2.42
2022-10-13T06:54:52.882Z,2.90
2022-10-13T06:57:19.303Z,3.47
2022-10-13T06:59:45.822Z,3.97
2022-10-13T07:02:12.253Z,3.20
2022-10-13T07:04:38.705Z,3.13
2022-10-13T07:07:05.130Z,2.78
2022-10-13T07:09:31.568Z,3.47
2022-10-13T07:11:58.006Z,3.97
2022-10-13T07:14:24.457Z,4.35
2022-10-13T07:16:50.879Z,2.97
2022-10-13T07:19:17.330Z,2.78
2022-10-13T07:21:43.749Z,2.22
2022-10-13T07:24:10.172Z,3.75
2022-10-13T07:26:36.594Z,3.17
2022-10-13T07:29:03.043Z,2.65
2022-10-13T07:31:29.477Z,4.63
2022-10-13T07:33:55.923Z,4.72
2022-10-13T07:36:22.342Z,3.72
2022-10-13T07:38:48.771Z,2.13
2022-10-13T07:41:15.203Z,3.03
2022-10-13T07:43:41.659Z,3.70
2022-10-13T07:46:08.085Z,4.40
2022-10-13T07:48:34.521Z,3.22
2022-10-13T07:51:00.947Z,3.25
2022-10-13T07:53:27.378Z,3.10
2022-10-13T07:55:53.800Z,3.10
2022-10-13T07:58:20.228Z,3.75
2022-10-13T08:00:46.652Z,2.85
2022-10-13T08:03:13.106Z,2.72
2022-10-13T08:05:39.537Z,4.65
2022-10-13T08:08:05.973Z,4.32
2022-10-13T08:10:32.467Z,5.80
2022-10-13T08:12:58.920Z,4.50
2022-10-13T08:15:25.359Z,4.03
2022-10-13T08:17:51.794Z,4.25
2022-10-13T08:20:18.242Z,2.83
2022-10-13T08:22:44.672Z,3.47
2022-10-13T08:25:11.121Z,3.17
2022-10-13T08:27:50.786Z,2.60
2022-10-13T08:30:17.789Z,3.20
2022-10-13T08:32:44.276Z,3.22
2022-10-13T08:35:10.723Z,6.18
2022-10-13T08:37:37.142Z,3.25
2022-10-13T08:40:03.576Z,4.38
2022-10-13T08:42:30.007Z,4.60
2022-10-13T08:45:36.310Z,3.53
2022-10-13T08:47:42.855Z,2.67
2022-10-13T08:50:09.289Z,2.90
2022-10-13T08:52:35.713Z,4.53
2022-10-13T08:55:02.155Z,4.03
2022-10-13T08:57:28.580Z,2.05
2022-10-13T08:59:55.036Z,2.88
2022-10-13T09:02:21.478Z,3.85
2022-10-13T09:04:47.939Z,3.42
2022-10-13T09:07:14.369Z,3.60
2022-10-13T09:09:40.794Z,3.05
2022-10-13T09:12:07.227Z,3.08
2022-10-13T09:14:33.656Z,4.07
2022-10-13T09:17:00.083Z,2.83
2022-10-13T09:19:26.505Z,2.53
2022-10-13T09:21:52.941Z,2.72
2022-10-13T09:24:19.366Z,2.92
2022-10-13T09:26:45.793Z,3.08
2022-10-13T09:29:12.226Z,2.30
2022-10-13T09:31:38.662Z,2.63
2022-10-13T09:34:05.299Z,3.65
2022-10-13T09:36:31.745Z,4.18
2022-10-13T09:38:58.177Z,3.22
2022-10-13T09:41:24.699Z,3.30
2022-10-13T09:43:51.111Z,3.70
2022-10-13T09:46:17.536Z,3.15
2022-10-13T09:48:43.960Z,3.45
2022-10-13T09:51:10.401Z,2.80
2022-10-13T09:53:36.821Z,3.90
2022-10-13T09:56:03.259Z,1.95
2022-10-13T09:58:29.682Z,2.78
2022-10-13T10:00:56.114Z,2.63
2022-10-13T10:03:22.534Z,3.00
2022-10-13T10:05:48.968Z,2.70
2022-10-13T10:08:15.391Z,2.10
2022-10-13T10:10:41.834Z,2.33
2022-10-13T10:13:08.271Z,2.63
2022-10-13T10:15:34.711Z,3.70
2022-10-13T10:18:01.144Z,4.60
2022-10-13T10:20:27.583Z,3.00
2022-10-13T10:22:54.018Z,5.00
2022-10-13T10:25:20.470Z,3.25
2022-10-13T10:27:46.908Z,2.75
2022-10-13T10:30:13.383Z,3.08
2022-10-13T10:32:39.876Z,2.85
2022-10-13T10:35:06.289Z,2.75
2022-10-13T10:37:32.701Z,2.30
2022-10-13T10:39:59.152Z,2.30
2022-10-13T10:42:25.578Z,1.83
2022-10-13T10:44:52.021Z,4.15
2022-10-13T10:47:21.031Z,2.92
2022-10-13T10:49:49.805Z,3.05
2022-10-13T10:52:16.230Z,4.03
2022-10-13T10:54:46.706Z,3.50
2022-10-13T10:57:15.841Z,2.85
2022-10-13T10:59:42.274Z,4.65
2022-10-13T11:02:08.692Z,3.53
2022-10-13T11:04:35.138Z,2.40
2022-10-13T11:07:01.559Z,3.90
2022-10-13T11:09:27.981Z,5.82
2022-10-13T11:11:54.418Z,4.03
2022-10-13T11:14:20.842Z,2.78
2022-10-13T11:16:47.285Z,2.45
2022-10-13T11:19:13.712Z,2.97
2022-10-13T11:21:40.136Z,2.70
2022-10-13T11:24:06.568Z,3.30
2022-10-13T11:26:33.016Z,2.80
2022-10-13T11:28:59.445Z,4.72
2022-10-13T11:31:25.923Z,2.17
2022-10-13T11:33:52.359Z,3.13
2022-10-13T11:36:18.798Z,2.70
2022-10-13T11:38:45.226Z,3.55
2022-10-13T11:41:11.669Z,4.43
2022-10-13T11:43:38.086Z,4.32
2022-10-13T11:46:04.512Z,3.22
2022-10-13T11:48:30.940Z,3.25
2022-10-13T11:50:57.390Z,2.25
2022-10-13T11:53:23.828Z,2.35
2022-10-13T11:55:50.258Z,2.00
2022-10-13T11:58:16.676Z,2.92
2022-10-13T12:00:43.098Z,2.53
2022-10-13T12:03:09.584Z,3.25
2022-10-13T12:05:36.024Z,3.00
2022-10-13T12:08:02.452Z,3.75
2022-10-13T12:10:28.863Z,2.50
2022-10-13T12:12:55.293Z,1.98
2022-10-13T12:15:21.715Z,4.03
2022-10-13T12:17:48.140Z,4.05
2022-10-13T12:20:14.584Z,3.60
2022-10-13T12:22:40.999Z,3.40
2022-10-13T12:25:07.444Z,2.85
2022-10-13T12:27:33.861Z,2.92
2022-10-13T12:30:00.304Z,2.13
2022-10-13T12:32:26.737Z,3.70
2022-10-13T12:34:53.174Z,2.83
2022-10-13T12:37:19.843Z,3.97
2022-10-13T12:39:46.428Z,3.10
2022-10-13T12:42:12.844Z,3.13
2022-10-13T12:44:39.281Z,3.25
2022-10-13T12:47:05.706Z,3.05
2022-10-13T12:49:32.158Z,2.33
2022-10-13T12:51:58.594Z,3.55
2022-10-13T12:54:25.041Z,2.88
2022-10-13T12:56:55.266Z,2.53
2022-10-13T12:59:22.949Z,2.30
2022-10-13T13:01:49.367Z,2.80
2022-10-13T13:04:15.792Z,3.80
2022-10-13T13:06:42.209Z,3.95
2022-10-13T13:09:08.645Z,2.83
2022-10-13T13:11:35.064Z,3.08
2022-10-13T13:14:01.545Z,2.40
2022-10-13T13:16:27.993Z,2.85
2022-10-13T13:18:54.480Z,1.92
2022-10-13T13:21:20.897Z,2.15
2022-10-13T13:23:51.119Z,2.42
2022-10-13T13:26:20.382Z,2.75
2022-10-13T13:28:46.862Z,3.00
2022-10-13T13:31:13.345Z,2.42
2022-10-13T13:33:39.787Z,3.80
2022-10-13T13:36:06.217Z,3.15
2022-10-13T13:38:32.638Z,2.92
2022-10-13T13:41:03.062Z,2.95
2022-10-13T13:43:30.537Z,2.22
2022-10-13T13:45:57.005Z,2.75
2022-10-13T13:48:23.425Z,2.42
2022-10-13T13:50:49.873Z,1.98
2022-10-13T13:53:16.309Z,2.42
2022-10-13T13:55:42.753Z,2.47
2022-10-13T13:58:09.188Z,2.35
2022-10-13T14:00:35.639Z,1.50
2022-10-13T14:03:02.073Z,3.22
2022-10-13T14:05:28.587Z,2.72
2022-10-13T14:07:55.014Z,2.00
2022-10-13T14:10:21.467Z,4.35
2022-10-13T14:12:47.884Z,3.67
2022-10-13T14:15:14.308Z,3.42
2022-10-13T14:17:40.747Z,2.90
2022-10-13T14:20:07.187Z,2.72
2022-10-13T14:22:33.608Z,2.63
2022-10-13T14:25:00.036Z,2.72
2022-10-13T14:27:26.461Z,2.80
2022-10-13T14:29:52.909Z,2.78
2022-10-13T14:32:19.593Z,2.40
2022-10-13T14:34:46.248Z,2.83
2022-10-13T14:37:12.687Z,2.78
2022-10-13T14:39:39.098Z,2.70
2022-10-13T14:42:05.541Z,2.35
2022-10-13T14:44:31.977Z,3.08
2022-10-13T14:46:58.405Z,3.30
2022-10-13T14:49:24.838Z,2.40
2022-10-13T14:51:51.290Z,1.60
2022-10-13T14:54:17.733Z,1.83
2022-10-13T14:56:44.184Z,1.63
2022-10-13T14:59:10.604Z,2.50
2022-10-13T15:01:37.050Z,2.25
2022-10-13T15:04:03.491Z,2.03
2022-10-13T15:06:29.925Z,2.00
2022-10-13T15:08:56.393Z,2.45
2022-10-13T15:11:22.924Z,2.00
2022-10-13T15:13:49.361Z,3.28
2022-10-13T15:16:15.821Z,2.60
2022-10-13T15:18:42.264Z,3.05
2022-10-13T15:21:08.705Z,2.85
2022-10-13T15:23:35.133Z,3.70
2022-10-13T15:26:01.564Z,3.72
2022-10-13T15:28:28.039Z,4.38
2022-10-13T15:30:54.515Z,5.35
2022-10-13T15:33:20.959Z,4.60
2022-10-13T15:35:47.389Z,6.00
2022-10-13T15:38:13.809Z,6.30
2022-10-13T15:40:40.265Z,5.18
2022-10-13T15:43:06.710Z,6.00
2022-10-13T15:45:33.149Z,5.88
2022-10-13T15:47:59.590Z,3.53
2022-10-13T15:50:26.027Z,3.47
2022-10-13T15:52:52.501Z,3.78
2022-10-13T15:55:18.969Z,3.10
2022-10-13T15:57:45.393Z,2.83
2022-10-13T16:00:11.811Z,4.80
2022-10-13T16:02:38.244Z,3.53
2022-10-13T16:05:04.671Z,3.33
2022-10-13T16:07:31.118Z,2.88
2022-10-13T16:09:57.552Z,2.70
2022-10-13T16:12:23.985Z,1.60
2022-10-13T16:14:50.409Z,1.90
2022-10-13T16:17:16.834Z,1.30
2022-10-13T16:19:43.255Z,1.92
2022-10-13T16:22:09.694Z,2.05
2022-10-13T16:24:36.122Z,3.05
2022-10-13T16:27:02.548Z,2.92
2022-10-13T16:29:28.972Z,1.83
2022-10-13T16:31:55.397Z,3.35
2022-10-13T16:34:21.834Z,2.38
2022-10-13T16:36:48.273Z,2.58
2022-10-13T16:39:14.699Z,1.63
2022-10-13T16:41:41.156Z,2.67
2022-10-13T16:44:07.573Z,1.67
2022-10-13T16:46:34.015Z,1.90
2022-10-13T16:49:00.434Z,2.00
2022-10-13T16:51:26.902Z,3.03
2022-10-13T16:53:53.343Z,2.47
2022-10-13T16:56:19.776Z,1.90
2022-10-13T16:58:46.246Z,2.55
2022-10-13T17:01:12.747Z,2.17
2022-10-13T17:03:39.223Z,2.05
2022-10-13T17:06:05.648Z,2.22
2022-10-13T17:08:32.075Z,1.60
2022-10-13T17:10:58.576Z,1.77
2022-10-13T17:13:25.032Z,2.38
2022-10-13T17:15:51.473Z,1.92
2022-10-13T17:18:17.896Z,2.38
2022-10-13T17:20:44.307Z,2.80
2022-10-13T17:23:10.723Z,2.85
2022-10-13T17:25:37.178Z,2.20
2022-10-13T17:28:03.629Z,2.88
2022-10-13T17:30:30.081Z,1.67
2022-10-13T17:32:59.576Z,1.92
2022-10-13T17:35:28.505Z,1.92
2022-10-13T17:37:54.955Z,1.80
2022-10-13T17:40:21.366Z,2.50
2022-10-13T17:42:47.801Z,2.00
2022-10-13T17:45:14.251Z,2.60
2022-10-13T17:47:40.685Z,2.67
2022-10-13T17:50:07.103Z,4.75
2022-10-13T17:52:33.525Z,4.15
2022-10-13T17:54:59.953Z,3.78
2022-10-13T17:57:26.395Z,4.85
2022-10-13T17:59:52.834Z,3.53
2022-10-13T18:02:19.320Z,2.85
2022-10-13T18:04:45.765Z,2.40
2022-10-13T18:07:12.202Z,2.30
2022-10-13T18:09:38.613Z,2.45
2022-10-13T18:12:05.057Z,3.05
2022-10-13T18:14:31.474Z,2.90
2022-10-13T18:16:57.906Z,2.40
2022-10-13T18:19:24.342Z,2.97
2022-10-13T18:21:50.769Z,2.17
2022-10-13T18:24:17.223Z,1.98
2022-10-13T18:26:43.667Z,2.80
2022-10-13T18:29:10.117Z,2.63
2022-10-13T18:31:36.533Z,3.08
2022-10-13T18:34:02.974Z,2.42
2022-10-13T18:36:29.409Z,2.40
2022-10-13T18:38:55.882Z,2.30
2022-10-13T18:41:22.310Z,1.98
2022-10-13T18:43:48.738Z,2.03
2022-10-13T18:46:15.166Z,2.08
2022-10-13T18:48:41.600Z,2.17
2022-10-13T18:51:08.051Z,2.70
2022-10-13T18:53:34.493Z,2.15
2022-10-13T18:56:00.936Z,2.67
2022-10-13T18:58:27.362Z,3.83
2022-10-13T19:00:53.823Z,7.90
2022-10-13T19:03:20.296Z,3.10
2022-10-13T19:05:46.721Z,3.35
2022-10-13T19:08:13.178Z,3.00
2022-10-13T19:10:39.611Z,4.43
2022-10-13T19:13:06.028Z,3.25
2022-10-13T19:15:32.449Z,2.67
2022-10-13T19:17:58.879Z,2.40
2022-10-13T19:20:25.326Z,2.65
2022-10-13T19:22:51.753Z,3.08
2022-10-13T19:25:18.218Z,2.75
2022-10-13T19:27:44.648Z,3.22
2022-10-13T19:30:11.087Z,2.83
2022-10-13T19:32:37.515Z,2.90
2022-10-13T19:35:03.962Z,2.63
2022-10-13T19:37:30.377Z,3.45
2022-10-13T19:39:56.831Z,3.20
2022-10-13T19:42:23.245Z,3.05
2022-10-13T19:44:49.698Z,2.47
2022-10-13T19:47:16.153Z,4.07
2022-10-13T19:49:42.582Z,2.97
2022-10-13T19:52:09.005Z,3.42
2022-10-13T19:54:35.456Z,4.22
2022-10-13T19:57:01.889Z,4.35
2022-10-13T19:59:28.328Z,3.35
2022-10-13T20:01:54.746Z,3.70
2022-10-13T20:04:21.186Z,2.92
2022-10-13T20:06:47.623Z,3.28
2022-10-13T20:09:14.050Z,3.97
2022-10-13T20:11:40.468Z,3.45
2022-10-13T20:14:06.906Z,3.63
2022-10-13T20:16:33.325Z,2.83
2022-10-13T20:18:59.753Z,2.85
2022-10-13T20:21:26.182Z,3.30
2022-10-13T20:23:52.634Z,4.07
2022-10-13T20:26:19.044Z,3.35
2022-10-13T20:28:45.561Z,2.63
2022-10-13T20:31:12.057Z,2.30
2022-10-13T20:33:38.467Z,3.28
2022-10-13T20:36:04.893Z,2.25
2022-10-13T20:38:31.314Z,4.80
2022-10-13T20:40:57.740Z,2.88
2022-10-13T20:43:25.843Z,3.38
2022-10-13T20:45:52.475Z,3.15
2022-10-13T20:48:18.901Z,2.60
2022-10-13T20:50:45.325Z,3.17
2022-10-13T20:53:11.758Z,2.58
2022-10-13T20:55:41.772Z,3.20
2022-10-13T20:58:08.438Z,3.05
2022-10-13T21:00:34.925Z,2.90
2022-10-13T21:03:02.353Z,3.70
2022-10-13T21:05:28.878Z,2.63
2022-10-13T21:07:55.301Z,3.20
2022-10-13T21:10:21.728Z,3.05
2022-10-13T21:12:48.152Z,3.00
2022-10-13T21:15:14.592Z,3.08
2022-10-13T21:17:42.526Z,2.63
2022-10-13T21:20:09.086Z,2.28
2022-10-13T21:22:35.553Z,2.90
2022-10-13T21:25:01.993Z,2.83
2022-10-13T21:27:28.416Z,3.10
2022-10-13T21:29:54.851Z,3.60
2022-10-13T21:32:21.268Z,4.53
2022-10-13T21:34:47.693Z,4.40
2022-10-13T21:37:14.126Z,4.60
2022-10-13T21:39:40.540Z,5.00
2022-10-13T21:42:06.967Z,4.97
2022-10-13T21:44:33.380Z,5.97
2022-10-13T21:46:59.816Z,5.68
2022-10-13T21:49:26.261Z,6.13
2022-10-13T21:51:52.712Z,5.18
2022-10-13T21:54:19.140Z,8.20
2022-10-13T21:56:45.585Z,8.80
2022-10-13T21:59:12.008Z,8.80
2022-10-13T22:01:38.453Z,7.03
2022-10-13T22:04:04.891Z,8.18
2022-10-13T22:06:31.348Z,9.77
2022-10-13T22:08:57.789Z,9.40
2022-10-13T22:11:24.227Z,13.93
2022-10-13T22:13:50.665Z,9.13
2022-10-13T22:16:17.097Z,8.40
2022-10-13T22:18:43.524Z,9.65
2022-10-13T22:21:09.967Z,13.95
2022-10-13T22:23:36.399Z,15.95
2022-10-13T22:26:02.828Z,16.10
2022-10-13T22:28:33.467Z,12.95
2022-10-13T22:31:02.579Z,12.35
2022-10-13T22:33:29.008Z,14.10
2022-10-13T22:35:55.444Z,15.38
2022-10-13T22:38:21.881Z,18.20
2022-10-13T22:40:48.311Z,14.80
2022-10-13T22:43:14.734Z,15.63
2022-10-13T22:45:41.185Z,13.77
2022-10-13T22:48:07.603Z,13.10
2022-10-13T22:50:34.040Z,12.20
2022-10-13T22:53:00.845Z,10.15
2022-10-13T22:55:27.281Z,15.20
2022-10-13T22:57:53.705Z,12.63
2022-10-13T23:00:20.134Z,12.25
2022-10-13T23:02:46.557Z,9.38
2022-10-13T23:05:12.984Z,9.63
2022-10-13T23:07:39.425Z,11.10
2022-10-13T23:10:05.852Z,8.80
2022-10-13T23:12:32.267Z,7.25
2022-10-13T23:14:58.703Z,6.68
2022-10-13T23:17:25.153Z,6.65
2022-10-13T23:19:51.577Z,8.15
2022-10-13T23:22:18.031Z,8.73
2022-10-13T23:24:44.469Z,9.38
2022-10-13T23:27:10.891Z,8.07
2022-10-13T23:29:37.317Z,6.90
2022-10-13T23:32:07.526Z,4.50
2022-10-13T23:34:36.084Z,4.32
2022-10-13T23:37:02.534Z,4.53
2022-10-13T23:39:28.969Z,4.10
2022-10-13T23:41:55.413Z,4.35
2022-10-13T23:44:21.829Z,3.88
2022-10-13T23:46:48.265Z,2.90
2022-10-13T23:49:14.688Z,4.15
2022-10-13T23:51:41.128Z,3.92
2022-10-13T23:54:07.550Z,5.25
2022-10-13T23:56:33.993Z,4.13
2022-10-13T23:59:00.440Z,3.80
